Terminal Aerodrome Forecast
Issued by NWS

Home | Current Version | Previous Version | Text Only | Print | Product List | Glossary On
Versions: 1 2 3 4 5 6 7 8 9 10 11 12 13 14 15 16 17 18 19 20
000
FTUS43 KDVN 211500 AAB
TAFCID
TAF AMD
KCID 211528Z 2115/2212 17005KT P6SM VCTS SCT080CB BKN120
      TEMPO 2115/2116 3SM -TSRA BR SCT050 BKN080CB
     FM211700 20010KT P6SM SCT120
     FM220400 17005KT P6SM VCTS BKN050CB=

USA.gov is the U.S. government's official web portal to all federal, state and local government web resources and services.